My Meet Scores
Sophia Burciaga, Aspire Gymnastics Academy - MyMeetScores.com
Top100 | Top Teams | Upcoming Meets | Completed Meets | Latest | Add Scores | Help| Support | Bookmark and Share

Sophia Burciaga, Aspire Gymnastics Academy
Personal Bests
LevelVault BarsBeamFloorAA
39.3759.500 9.2509.15036.900
49.1009.325 9.2758.75035.825
Meet Scores
Date Meet Team Session Level Division Vault Bars Beam Floor AA
2019-03-22 Illinois Gymnastics State Championships Aspire Gymnastics Academy 5 4 JR E 8.625 14T 9.325 7 9.125 13T 8.650 19T 35.725 10T
2019-03-08 Lucky Invite Aspire Gymnastics Academy A09 4 Jr B 8.500 9 9.250 8 9.100 8 8.725 12 35.575 9
2019-02-23 Kinetic Classic 2019 Aspire Gymnastics Academy 1 4 Older 8.425 27 9.175 9T 9.100 12T 8.650 25T 35.350 19
2019-02-15 Big ClassicBIG CLASSIC Aspire Gymnastics Academy 5A 4 Child D 8.650 5 9.000 5 8.725 10 8.650 8 35.025 7
2019-01-25 UGA Invitational Aspire Gymnastics Academy B06 4 Jr A 8.700 6 9.275 9 9.250 4T 8.600 12 35.825 6
2019-01-18 2019 Bravo Classic Aspire Gymnastics Academy 3B 4 Sr 9.100 6 8.900 5T 9.100 11 8.375 16 35.475 10T
2018-12-14 2018 Aspire Classic Aspire Gymnastics Academy 5A 4 Older 8.600 17T 9.000 9 9.075 11 8.550 20 35.225 16T
2018-12-07 St. Nick Invite 2018 Aspire Gymnastics Academy 6A 4 SrA 9.050 4 9.250 2 7.250 17 8.550 11 34.100 10
2018-11-17 Paul Hamm Thanksgiving Class WOMENS Aspire Gymnastics Academy 6 4 Middle 8.650 15T 8.750 16T 8.900 17 8.750 23T 35.050 16
2018-03-08 Level 4 & 5 State Aspire Gymnastics Academy All 4 Yh D 8.725 15T 8.500 17 9.275 12 8.400 27 34.900 16
2018-02-16 Big Classic Aspire Gymnastics Academy 2B 4 Child B 8.650 7 9.100 5 9.050 7 8.550 13 35.350 7
2018-01-26 2018 UGA Classic Aspire Gymnastics Academy B2 4 Jr B 8.625 3 8.575 6 9.150 6 8.500 14 34.850 9
2018-01-19 2018 Bravo Classic Aspire Gymnastics Academy 11B 4 Jr 8.825 3 8.500 15T 8.400 19 8.375 22 34.100 16
2017-12-15 2017 Aspire Classic Aspire Gymnastics Academy 3 4 Jr B 8.800 11T 9.050 12 8.675 14 8.075 22 34.600 14
2017-12-08 St. Nick Invite Aspire Gymnastics Academy 7A 4 JrB 8.900 9 8.300 15 8.825 15 8.025 18 34.050 17
2017-11-16 Paul Hamm Thanksgiving Classic - Women Aspire Gymnastics Academy 7 4 Middle 8.550 19T 9.050 17T 8.875 22 8.050 28 34.525 21
2017-03-30 2017 Illinois Level 3 & 5 State Aspire Gymnastics Academy All 3 Yh E 9.375 15T 9.500 7T 9.000 13T 8.750 22T 36.625 13
2017-02-24 Kinetic Classic Aspire Gymnastics Academy 4,5,6,7 3 All Ages 9.050 61T 9.150 39T 8.600 69 8.875 57T 35.675 58T
2017-02-18 2017 Great Western Invitational Women's Aspire Gymnastics Academy 2 3 Pony 9.275 8 9.000 7 8.875 6 9.125 8T 36.275 7
2017-01-27 2017 UGA Invitational Aspire Gymnastics Academy B6 3 Sr A 8.800 7 9.000 10 8.425 14T 9.150 7T 35.375 11
2017-01-20 2017 Bravo Classic Aspire Gymnastics Academy 10B 3 8yrs 9.225 11T 8.650 17 8.400 20T 8.425 17 34.700 18
2016-12-16 2016 Aspire Classic Aspire Gymnastics Academy 11 3 Middle 8.950 13T 9.150 11 8.925 4 9.150 7 36.175 7
2016-12-09 St. Nick Invite Aspire Gymnastics Academy 5 3 All 9.300 32T 9.250 17T 9.250 26T 9.100 32T 36.900 23
2016-11-19 Paul Hamm Thanksgiving Classic - 2016 Girls Aspire Gymnastics Academy 5 3 8 yrs 9.000 7T 8.925 5 9.075 2 8.775 8 35.775 4T
2016-03-04 2016 Illinois Level 3 State Championships Aspire Gymnastics Academy 3 Child-D 9.150 23 8.475 24 7.900 22 8.600 23 34.125 26
2016-02-13 Western Invite Aspire Gymnastics Academy 1 3 Filly 8.925 13 8.950 11 8.150 15 8.750 15 34.775 13T
2016-01-15 2016 Bravo Classic Aspire Gymnastics Academy 15A 3 6-7yrs 8.750 23 8.100 24 8.625 15 8.400 20T 33.875 21
2015-12-18 2015 Aspire Classic Aspire Gymnastics Academy 9 3 Middle 8.925 19 8.050 20 7.700 19 8.575 14 33.250 19
2015-12-11 St. Nick Invite Aspire Gymnastics Academy 6A 3 All 8.800 41T 7.250 46 7.600 51 8.275 40 31.925 48
Get your scores on
a t-shirt, pin, or hoodie

Order by December 12

www.lazysuits.com